createdAt,value
2019-06-08T00:01:28.293Z,5.60
2019-06-08T00:03:58.389Z,6.60
2019-06-08T00:06:28.416Z,5.95
2019-06-08T00:08:58.324Z,6.83
2019-06-08T00:11:28.185Z,6.33
2019-06-08T00:13:58.061Z,6.78
2019-06-08T00:16:28.063Z,6.25
2019-06-08T00:18:58.183Z,7.03
2019-06-08T00:21:28.186Z,6.03
2019-06-08T00:23:59.386Z,9.40
2019-06-08T00:26:29.388Z,7.45
2019-06-08T00:28:59.390Z,7.72
2019-06-08T00:31:29.396Z,6.65
2019-06-08T00:33:59.412Z,8.10
2019-06-08T00:36:29.394Z,5.00
2019-06-08T00:38:59.396Z,6.72
2019-06-08T00:41:29.413Z,7.80
2019-06-08T00:43:59.408Z,5.05
2019-06-08T00:46:29.427Z,6.42
2019-06-08T00:48:59.423Z,10.50
2019-06-08T00:51:29.826Z,6.40
2019-06-08T00:53:59.774Z,7.92
2019-06-08T00:56:30.035Z,7.03
2019-06-08T00:59:00.258Z,5.58
2019-06-08T01:01:30.917Z,7.35
2019-06-08T01:04:00.976Z,7.53
2019-06-08T01:06:31.072Z,11.40
2019-06-08T01:09:00.975Z,7.85
2019-06-08T01:11:31.140Z,9.60
2019-06-08T01:14:01.101Z,8.80
2019-06-08T01:16:31.133Z,8.35
2019-06-08T01:19:01.109Z,9.15
2019-06-08T01:21:31.128Z,9.88
2019-06-08T01:24:00.987Z,8.98
2019-06-08T01:26:31.090Z,8.40
2019-06-08T01:29:01.117Z,8.40
2019-06-08T01:31:31.141Z,9.35
2019-06-08T01:34:01.022Z,13.50
2019-06-08T01:36:31.292Z,9.03
2019-06-08T01:39:01.358Z,13.25
2019-06-08T01:41:31.714Z,10.50
2019-06-08T01:44:01.730Z,13.30
2019-06-08T01:46:32.405Z,10.17
2019-06-08T01:49:02.323Z,10.10
2019-06-08T01:51:32.748Z,10.93
2019-06-08T01:54:02.838Z,11.30
2019-06-08T01:56:33.387Z,11.70
2019-06-08T01:59:03.661Z,11.85
2019-06-08T02:01:34.163Z,10.70
2019-06-08T02:04:04.623Z,11.93
2019-06-08T02:06:34.772Z,10.60
2019-06-08T02:09:07.619Z,11.75
2019-06-08T02:11:37.861Z,12.07
2019-06-08T02:14:07.860Z,11.88
2019-06-08T02:16:37.870Z,13.60
2019-06-08T02:19:07.878Z,11.30
2019-06-08T02:21:39.022Z,11.00
2019-06-08T02:24:08.961Z,11.83
2019-06-08T02:26:39.720Z,10.43
2019-06-08T02:29:09.790Z,12.13
2019-06-08T02:31:39.692Z,16.32
2019-06-08T02:34:09.696Z,11.03
2019-06-08T02:36:40.803Z,14.35
2019-06-08T02:39:11.147Z,17.20
2019-06-08T02:41:41.005Z,17.20
2019-06-08T02:44:11.147Z,16.20
2019-06-08T02:46:41.015Z,15.15
2019-06-08T02:49:10.907Z,14.28
2019-06-08T02:51:41.344Z,14.90
2019-06-08T02:54:13.185Z,16.40
2019-06-08T02:56:44.258Z,13.30
2019-06-08T02:59:16.029Z,15.00
2019-06-08T03:01:48.587Z,14.15
2019-06-08T03:04:19.998Z,13.58
2019-06-08T03:06:52.337Z,15.75
2019-06-08T03:09:23.834Z,12.13
2019-06-08T03:11:56.656Z,16.52
2019-06-08T03:14:31.059Z,17.48
2019-06-08T03:17:01.641Z,18.40
2019-06-08T03:19:33.344Z,13.93
2019-06-08T03:22:03.921Z,14.10
2019-06-08T03:24:34.871Z,16.02
2019-06-08T03:27:06.263Z,15.70
2019-06-08T03:29:37.626Z,16.87
2019-06-08T03:32:09.148Z,14.00
2019-06-08T03:34:46.023Z,14.80
2019-06-08T03:37:11.421Z,16.10
2019-06-08T03:39:43.093Z,14.80
2019-06-08T03:42:13.540Z,14.78
2019-06-08T03:44:45.118Z,15.93
2019-06-08T03:47:15.516Z,14.13
2019-06-08T03:49:54.923Z,12.75
2019-06-08T03:52:18.585Z,12.07
2019-06-08T03:54:49.188Z,13.30
2019-06-08T03:57:19.591Z,11.70
2019-06-08T03:59:50.149Z,14.73
2019-06-08T04:02:21.114Z,14.83
2019-06-08T04:04:52.086Z,17.48
2019-06-08T04:07:22.917Z,15.95
2019-06-08T04:09:53.397Z,16.97
2019-06-08T04:12:23.685Z,14.40
2019-06-08T04:14:54.239Z,19.32
2019-06-08T04:17:24.755Z,12.23
2019-06-08T04:20:09.746Z,18.32
2019-06-08T04:22:27.381Z,12.78
2019-06-08T04:24:57.850Z,15.35
2019-06-08T04:27:28.572Z,13.55
2019-06-08T04:29:58.982Z,15.10
2019-06-08T04:32:29.655Z,15.60
2019-06-08T04:35:00.392Z,15.87
2019-06-08T04:37:31.471Z,15.97
2019-06-08T04:40:01.944Z,15.35
2019-06-08T04:42:32.428Z,17.42
2019-06-08T04:45:03.311Z,17.40
2019-06-08T04:47:33.879Z,13.90
2019-06-08T04:50:21.720Z,13.40
2019-06-08T04:52:38.887Z,13.62
2019-06-08T04:55:10.470Z,13.03
2019-06-08T04:57:41.922Z,17.82
2019-06-08T05:00:13.715Z,18.05
2019-06-08T05:02:46.228Z,12.78
2019-06-08T05:05:17.073Z,15.33
2019-06-08T05:07:48.522Z,14.55
2019-06-08T05:10:20.243Z,11.08
2019-06-08T05:12:51.278Z,14.65
2019-06-08T05:15:22.306Z,15.70
2019-06-08T05:17:52.878Z,14.93
2019-06-08T05:20:37.559Z,15.55
2019-06-08T05:22:55.311Z,15.40
2019-06-08T05:25:25.982Z,19.62
2019-06-08T05:27:56.809Z,18.25
2019-06-08T05:30:28.233Z,15.43
2019-06-08T05:32:59.095Z,19.48
2019-06-08T05:35:29.814Z,14.05
2019-06-08T05:38:00.666Z,13.33
2019-06-08T05:40:32.241Z,15.78
2019-06-08T05:43:02.848Z,13.98
2019-06-08T05:45:33.354Z,15.75
2019-06-08T05:48:04.165Z,15.10
2019-06-08T05:50:34.886Z,12.75
2019-06-08T05:53:05.863Z,12.93
2019-06-08T05:55:36.425Z,18.40
2019-06-08T05:58:07.321Z,16.17
2019-06-08T06:00:37.900Z,13.08
2019-06-08T06:03:08.836Z,13.20
2019-06-08T06:05:52.156Z,14.25
2019-06-08T06:08:22.923Z,14.60
2019-06-08T06:10:53.523Z,10.50
2019-06-08T06:13:24.855Z,15.48
2019-06-08T06:15:55.467Z,14.75
2019-06-08T06:18:26.053Z,14.18
2019-06-08T06:21:09.897Z,16.07
2019-06-08T06:23:29.053Z,14.28
2019-06-08T06:25:59.661Z,18.17
2019-06-08T06:28:30.453Z,12.80
2019-06-08T06:31:01.458Z,13.93
2019-06-08T06:33:32.269Z,16.05
2019-06-08T06:36:02.974Z,16.52
2019-06-08T06:38:33.595Z,12.30
2019-06-08T06:41:04.325Z,15.48
2019-06-08T06:43:35.317Z,11.30
2019-06-08T06:46:05.995Z,12.00
2019-06-08T06:48:36.393Z,16.57
2019-06-08T06:51:07.228Z,18.53
2019-06-08T06:53:37.613Z,18.35
2019-06-08T06:56:08.031Z,14.90
2019-06-08T06:58:42.985Z,17.87
2019-06-08T07:01:13.911Z,12.80
2019-06-08T07:03:46.059Z,13.60
2019-06-08T07:06:16.677Z,15.08
2019-06-08T07:08:48.241Z,18.23
2019-06-08T07:11:19.330Z,14.15
2019-06-08T07:13:50.842Z,17.12
2019-06-08T07:16:21.490Z,13.35
2019-06-08T07:18:52.674Z,13.90
2019-06-08T07:21:23.091Z,13.85
2019-06-08T07:23:55.904Z,16.48
2019-06-08T07:26:26.174Z,11.30
2019-06-08T07:28:56.892Z,13.72
2019-06-08T07:31:27.497Z,13.88
2019-06-08T07:33:59.695Z,11.85
2019-06-08T07:36:30.871Z,15.05
2019-06-08T07:39:01.237Z,12.68
2019-06-08T07:41:31.954Z,25.77
2019-06-08T07:44:02.545Z,13.75
2019-06-08T07:46:32.821Z,13.00
2019-06-08T07:49:04.038Z,13.45
2019-06-08T07:51:34.706Z,12.00
2019-06-08T07:54:05.233Z,10.07
2019-06-08T07:56:35.847Z,10.43
2019-06-08T07:59:06.192Z,11.25
2019-06-08T08:01:36.790Z,12.65
2019-06-08T08:04:07.775Z,10.60
2019-06-08T08:06:38.504Z,10.40
2019-06-08T08:09:09.892Z,11.15
2019-06-08T08:11:40.421Z,11.12
2019-06-08T08:14:11.209Z,10.97
2019-06-08T08:16:41.856Z,10.43
2019-06-08T08:19:12.540Z,11.77
2019-06-08T08:21:43.138Z,13.13
2019-06-08T08:24:14.032Z,10.15
2019-06-08T08:26:44.576Z,15.78
2019-06-08T08:29:17.673Z,13.28
2019-06-08T08:31:49.114Z,11.10
2019-06-08T08:34:20.032Z,13.30
2019-06-08T08:36:51.093Z,14.85
2019-06-08T08:39:22.436Z,11.35
2019-06-08T08:41:56.844Z,9.95
2019-06-08T08:44:25.677Z,9.88
2019-06-08T08:46:57.001Z,11.43
2019-06-08T08:49:28.186Z,13.10
2019-06-08T08:52:00.575Z,9.33
2019-06-08T08:54:31.392Z,10.30
2019-06-08T08:57:05.033Z,10.50
2019-06-08T08:59:34.649Z,13.80
2019-06-08T09:02:10.927Z,11.67
2019-06-08T09:04:38.171Z,8.23
2019-06-08T09:07:10.617Z,13.18
2019-06-08T09:09:41.360Z,8.28
2019-06-08T09:12:11.843Z,8.78
2019-06-08T09:14:42.705Z,12.70
2019-06-08T09:17:13.456Z,10.15
2019-06-08T09:19:44.311Z,13.40
2019-06-08T09:22:14.734Z,10.13
2019-06-08T09:24:45.469Z,13.20
2019-06-08T09:27:17.877Z,7.95
2019-06-08T09:29:48.694Z,11.00
2019-06-08T09:32:19.474Z,9.23
2019-06-08T09:34:50.257Z,12.60
2019-06-08T09:37:20.799Z,10.43
2019-06-08T09:39:51.395Z,10.23
2019-06-08T09:42:22.544Z,11.78
2019-06-08T09:44:55.100Z,9.83
2019-06-08T09:47:25.190Z,11.33
2019-06-08T09:49:58.798Z,10.95
2019-06-08T09:52:28.243Z,9.97
2019-06-08T09:55:02.312Z,9.95
2019-06-08T09:57:31.322Z,9.83
2019-06-08T10:00:08.675Z,11.25
2019-06-08T10:02:34.804Z,8.98
2019-06-08T10:05:06.387Z,8.35
2019-06-08T10:07:38.879Z,9.60
2019-06-08T10:10:10.445Z,8.85
2019-06-08T10:12:41.378Z,8.38
2019-06-08T10:15:12.797Z,7.62
2019-06-08T10:17:43.267Z,11.57
2019-06-08T10:20:14.199Z,10.93
2019-06-08T10:22:44.656Z,10.15
2019-06-08T10:25:15.810Z,11.70
2019-06-08T10:27:46.496Z,9.28
2019-06-08T10:30:17.583Z,7.30
2019-06-08T10:32:50.762Z,9.55
2019-06-08T10:35:21.074Z,9.50
2019-06-08T10:37:55.077Z,9.38
2019-06-08T10:40:24.155Z,6.97
2019-06-08T10:42:54.770Z,9.73
2019-06-08T10:45:25.618Z,12.03
2019-06-08T10:47:59.341Z,9.58
2019-06-08T10:50:30.271Z,7.53
2019-06-08T10:53:03.650Z,9.40
2019-06-08T10:55:33.428Z,10.32
2019-06-08T10:58:04.522Z,9.03
2019-06-08T11:00:35.586Z,9.70
2019-06-08T11:03:09.730Z,8.85
2019-06-08T11:05:38.086Z,9.65
2019-06-08T11:08:12.969Z,12.05
2019-06-08T11:10:40.971Z,9.13
2019-06-08T11:13:14.954Z,9.30
2019-06-08T11:15:43.790Z,7.90
2019-06-08T11:18:14.046Z,10.25
2019-06-08T11:20:44.574Z,8.05
2019-06-08T11:23:15.339Z,10.48
2019-06-08T11:25:45.813Z,7.58
2019-06-08T11:28:18.554Z,8.20
2019-06-08T11:30:48.954Z,7.72
2019-06-08T11:33:19.555Z,8.68
2019-06-08T11:35:50.357Z,9.98
2019-06-08T11:38:20.951Z,8.28
2019-06-08T11:40:51.435Z,10.30
2019-06-08T11:43:22.035Z,9.95
2019-06-08T11:45:52.757Z,9.58
2019-06-08T11:48:23.272Z,7.12
2019-06-08T11:50:53.832Z,6.58
2019-06-08T11:53:24.472Z,5.67
2019-06-08T11:55:58.604Z,7.85
2019-06-08T11:58:30.756Z,8.90
2019-06-08T12:01:05.477Z,9.47
2019-06-08T12:03:38.763Z,9.63
2019-06-08T12:06:12.921Z,8.18
2019-06-08T12:08:41.480Z,6.87
2019-06-08T12:11:17.275Z,10.48
2019-06-08T12:13:44.494Z,8.43
2019-06-08T12:16:19.545Z,7.60
2019-06-08T12:18:49.168Z,7.20
2019-06-08T12:21:20.130Z,8.88
2019-06-08T12:23:50.735Z,8.00
2019-06-08T12:26:21.508Z,7.03
2019-06-08T12:28:51.942Z,7.30
2019-06-08T12:31:22.897Z,5.97
2019-06-08T12:33:53.552Z,8.70
2019-06-08T12:36:24.462Z,6.33
2019-06-08T12:38:55.544Z,8.90
2019-06-08T12:41:28.922Z,7.70
2019-06-08T12:43:58.956Z,5.67
2019-06-08T12:46:29.548Z,9.80
2019-06-08T12:49:00.466Z,7.30
2019-06-08T12:51:31.316Z,9.03
2019-06-08T12:54:01.848Z,7.33
2019-06-08T12:56:32.399Z,7.90
2019-06-08T12:59:03.121Z,6.50
2019-06-08T13:01:33.843Z,8.28
2019-06-08T13:04:04.680Z,8.90
2019-06-08T13:06:35.097Z,10.20
2019-06-08T13:09:08.984Z,6.90
2019-06-08T13:11:38.643Z,8.55
2019-06-08T13:14:10.261Z,9.77
2019-06-08T13:16:41.686Z,6.60
2019-06-08T13:19:13.129Z,6.53
2019-06-08T13:21:44.299Z,8.75
2019-06-08T13:24:15.625Z,5.08
2019-06-08T13:26:50.395Z,7.72
2019-06-08T13:29:20.156Z,6.05
2019-06-08T13:31:50.548Z,6.80
2019-06-08T13:34:24.283Z,6.08
2019-06-08T13:36:53.428Z,6.65
2019-06-08T13:39:24.027Z,5.50
2019-06-08T13:41:54.436Z,5.95
2019-06-08T13:44:27.658Z,6.50
2019-06-08T13:46:57.907Z,4.97
2019-06-08T13:49:30.778Z,6.25
2019-06-08T13:52:01.030Z,4.97
2019-06-08T13:54:32.000Z,5.37
2019-06-08T13:57:02.796Z,5.95
2019-06-08T13:59:33.287Z,7.15
2019-06-08T14:02:04.477Z,6.47
2019-06-08T14:04:39.436Z,5.03
2019-06-08T14:07:08.350Z,7.28
2019-06-08T14:09:38.805Z,4.80
2019-06-08T14:12:09.643Z,6.47
2019-06-08T14:14:40.127Z,5.77
2019-06-08T14:17:10.736Z,7.08
2019-06-08T14:19:41.390Z,5.53
2019-06-08T14:22:11.977Z,4.95
2019-06-08T14:24:42.675Z,5.47
2019-06-08T14:27:13.494Z,6.50
2019-06-08T14:29:44.024Z,7.17
2019-06-08T14:32:17.555Z,10.60
2019-06-08T14:34:47.986Z,4.72
2019-06-08T14:39:48.816Z,6.53
2019-06-08T14:42:24.643Z,5.15
2019-06-08T14:44:52.027Z,6.53
2019-06-08T14:47:22.791Z,5.08
2019-06-08T14:49:53.109Z,5.97
2019-06-08T14:52:25.262Z,7.28
2019-06-08T14:54:58.506Z,9.53
2019-06-08T15:00:00.084Z,7.65
2019-06-08T15:02:31.485Z,4.28
2019-06-08T15:05:02.168Z,6.33
2019-06-08T15:07:32.889Z,5.28
2019-06-08T15:10:03.326Z,9.33
2019-06-08T15:12:33.737Z,5.50
2019-06-08T15:15:04.652Z,8.00
2019-06-08T15:17:35.182Z,4.15
2019-06-08T15:20:08.808Z,5.78
2019-06-08T15:22:39.334Z,4.55
2019-06-08T15:25:11.063Z,4.95
2019-06-08T15:27:42.370Z,6.28
2019-06-08T15:30:17.463Z,7.50
2019-06-08T15:32:48.079Z,7.15
2019-06-08T15:35:18.757Z,5.87
2019-06-08T15:40:19.196Z,5.37
2019-06-08T15:42:49.953Z,4.80
2019-06-08T15:45:21.867Z,3.92
2019-06-08T15:47:52.552Z,4.97
2019-06-08T15:50:24.174Z,7.15
2019-06-08T15:55:24.958Z,4.08
2019-06-08T15:57:55.558Z,3.52
2019-06-08T16:00:28.359Z,5.75
2019-06-08T16:02:58.384Z,4.45
2019-06-08T16:05:29.618Z,7.03
2019-06-08T16:08:00.242Z,6.20
2019-06-08T16:10:30.608Z,5.90
2019-06-08T16:13:01.572Z,6.22
2019-06-08T16:15:33.361Z,5.53
2019-06-08T16:20:33.678Z,5.42
2019-06-08T16:23:04.033Z,5.37
2019-06-08T16:25:38.374Z,7.25
2019-06-08T16:28:06.885Z,3.85
2019-06-08T16:30:37.269Z,6.17
2019-06-08T16:33:07.629Z,8.50
2019-06-08T16:35:38.055Z,6.67
2019-06-08T16:38:08.437Z,4.72
2019-06-08T16:40:38.787Z,6.03
2019-06-08T16:43:09.630Z,5.28
2019-06-08T16:45:40.491Z,4.77
2019-06-08T16:48:11.792Z,6.63
2019-06-08T16:50:42.276Z,5.87
2019-06-08T16:53:13.052Z,5.30
2019-06-08T16:55:43.837Z,7.00
2019-06-08T16:58:14.242Z,5.40
2019-06-08T17:00:44.683Z,6.05
2019-06-08T17:03:14.866Z,6.05
2019-06-08T17:05:45.458Z,4.47
2019-06-08T17:08:15.649Z,7.33
2019-06-08T17:10:46.135Z,4.78
2019-06-08T17:13:16.769Z,11.78
2019-06-08T17:15:47.814Z,6.72
2019-06-08T17:18:18.302Z,5.62
2019-06-08T17:20:48.895Z,3.95
2019-06-08T17:23:19.907Z,4.40
2019-06-08T17:25:50.486Z,8.63
2019-06-08T17:28:20.869Z,5.40
2019-06-08T17:30:51.476Z,4.42
2019-06-08T17:33:22.023Z,6.15
2019-06-08T17:35:52.388Z,6.45
2019-06-08T17:38:22.914Z,6.42
2019-06-08T17:40:53.470Z,4.78
2019-06-08T17:43:24.429Z,4.72
2019-06-08T17:45:54.820Z,7.62
2019-06-08T17:48:25.201Z,5.60
2019-06-08T17:50:55.752Z,9.08
2019-06-08T17:53:26.609Z,7.85
2019-06-08T17:55:56.874Z,5.25
2019-06-08T17:58:27.321Z,6.70
2019-06-08T18:00:57.928Z,5.12
2019-06-08T18:03:28.409Z,6.62
2019-06-08T18:05:59.249Z,5.53
2019-06-08T18:08:29.972Z,8.20
2019-06-08T18:11:00.686Z,6.35
2019-06-08T18:13:31.531Z,5.87
2019-06-08T18:16:02.011Z,6.08
2019-06-08T18:18:32.619Z,5.67
2019-06-08T18:21:03.273Z,7.28
2019-06-08T18:23:34.287Z,7.60
2019-06-08T18:26:04.928Z,9.73
2019-06-08T18:28:37.122Z,4.40
2019-06-08T18:31:07.827Z,5.30
2019-06-08T18:33:41.210Z,5.95
2019-06-08T18:36:10.712Z,6.17
2019-06-08T18:38:42.955Z,7.78
2019-06-08T18:41:13.548Z,5.72
2019-06-08T18:43:45.413Z,4.85
2019-06-08T18:46:17.963Z,6.95
2019-06-08T18:48:49.335Z,8.53
2019-06-08T18:51:20.155Z,6.78
2019-06-08T18:54:07.394Z,7.28
2019-06-08T18:56:22.969Z,6.85
2019-06-08T18:58:53.863Z,7.70
2019-06-08T19:01:24.607Z,4.70
2019-06-08T19:03:57.750Z,9.65
2019-06-08T19:06:27.967Z,6.70
2019-06-08T19:08:58.977Z,5.17
2019-06-08T19:11:29.566Z,5.45
2019-06-08T19:14:00.158Z,7.03
2019-06-08T19:16:30.856Z,6.50
2019-06-08T19:19:01.882Z,6.58
2019-06-08T19:21:32.536Z,6.35
2019-06-08T19:24:03.055Z,6.83
2019-06-08T19:26:33.556Z,8.83
2019-06-08T19:29:03.980Z,6.55
2019-06-08T19:31:34.541Z,8.30
2019-06-08T19:34:07.505Z,7.92
2019-06-08T19:36:39.986Z,5.90
2019-06-08T19:39:10.113Z,4.25
2019-06-08T19:41:41.506Z,6.17
2019-06-08T19:46:43.042Z,6.72
2019-06-08T19:49:13.413Z,5.12
2019-06-08T19:51:45.010Z,5.72
2019-06-08T19:56:52.139Z,9.23
2019-06-08T20:01:56.031Z,11.75
2019-06-08T20:04:20.861Z,8.55
2019-06-08T20:06:50.872Z,6.42
2019-06-08T20:09:21.336Z,7.45
2019-06-08T20:11:55.458Z,5.70
2019-06-08T20:14:23.252Z,11.90
2019-06-08T20:16:53.236Z,6.53
2019-06-08T20:19:23.360Z,3.87
2019-06-08T20:21:53.538Z,5.00
2019-06-08T20:24:23.490Z,6.60
2019-06-08T20:26:54.796Z,7.00
2019-06-08T20:29:27.908Z,7.58
2019-06-08T20:31:58.242Z,4.10
2019-06-08T20:34:27.811Z,7.92
2019-06-08T20:37:01.293Z,6.05
2019-06-08T20:39:29.374Z,8.08
2019-06-08T20:41:59.254Z,7.90
2019-06-08T20:44:30.289Z,4.90
2019-06-08T20:47:00.336Z,5.57
2019-06-08T20:49:30.240Z,11.48
2019-06-08T20:52:00.575Z,10.80
2019-06-08T20:54:30.586Z,8.90
2019-06-08T20:57:00.583Z,5.37
2019-06-08T20:59:33.995Z,5.92
2019-06-08T21:02:02.181Z,5.95
2019-06-08T21:04:32.155Z,6.65
2019-06-08T21:07:02.308Z,5.30
2019-06-08T21:09:32.156Z,5.53
2019-06-08T21:12:02.289Z,6.12
2019-06-08T21:14:32.156Z,6.87
2019-06-08T21:17:02.182Z,7.03
2019-06-08T21:19:32.160Z,8.03
2019-06-08T21:22:02.074Z,4.50
2019-06-08T21:24:32.043Z,8.30
2019-06-08T21:27:01.931Z,6.30
2019-06-08T21:29:46.948Z,5.78
2019-06-08T21:32:03.489Z,8.53
2019-06-08T21:34:33.373Z,5.35
2019-06-08T21:37:03.387Z,5.40
2019-06-08T21:39:36.087Z,6.50
2019-06-08T21:42:04.814Z,5.90
2019-06-08T21:44:37.085Z,7.53
2019-06-08T21:47:07.873Z,10.08
2019-06-08T21:49:38.552Z,7.70
2019-06-08T21:52:08.788Z,7.55
2019-06-08T21:54:38.668Z,5.78
2019-06-08T21:57:09.681Z,8.00
2019-06-08T21:59:39.869Z,7.70
2019-06-08T22:02:10.475Z,5.28
2019-06-08T22:04:40.360Z,8.33
2019-06-08T22:07:10.353Z,6.70
2019-06-08T22:09:40.354Z,7.75
2019-06-08T22:12:10.372Z,5.22
2019-06-08T22:14:40.243Z,7.47
2019-06-08T22:17:10.301Z,8.08
2019-06-08T22:19:40.257Z,9.13
2019-06-08T22:22:10.459Z,8.60
2019-06-08T22:24:40.376Z,4.75
2019-06-08T22:27:10.273Z,6.78
2019-06-08T22:29:40.131Z,8.63
2019-06-08T22:32:10.282Z,6.58
2019-06-08T22:34:40.133Z,9.68
2019-06-08T22:37:10.287Z,9.30
2019-06-08T22:39:40.136Z,10.38
2019-06-08T22:42:10.047Z,9.05
2019-06-08T22:44:39.900Z,6.47
2019-06-08T22:47:09.782Z,6.50
2019-06-08T22:49:39.675Z,12.78
2019-06-08T22:52:09.543Z,7.97
2019-06-08T22:54:39.428Z,7.72
2019-06-08T22:57:09.450Z,11.57
2019-06-08T22:59:39.434Z,6.62
2019-06-08T23:02:09.549Z,6.67
2019-06-08T23:04:39.450Z,6.40
2019-06-08T23:07:17.739Z,9.13
2019-06-08T23:09:40.877Z,6.97
2019-06-08T23:12:10.803Z,10.15
2019-06-08T23:14:40.780Z,10.00
2019-06-08T23:17:10.646Z,13.53
2019-06-08T23:19:40.645Z,9.45
2019-06-08T23:22:10.527Z,9.10
2019-06-08T23:24:40.407Z,6.62
2019-06-08T23:27:10.313Z,8.85
2019-06-08T23:29:40.166Z,8.53
2019-06-08T23:32:11.757Z,10.03
2019-06-08T23:34:41.615Z,16.32
2019-06-08T23:37:12.831Z,45.95
2019-06-08T23:39:43.060Z,55.17
2019-06-08T23:42:13.182Z,52.05
2019-06-08T23:44:43.175Z,67.58
2019-06-08T23:47:13.064Z,51.80
2019-06-08T23:49:43.183Z,57.17
2019-06-08T23:52:13.064Z,57.23
2019-06-08T23:54:43.189Z,47.30
2019-06-08T23:57:13.077Z,37.70
2019-06-08T23:59:47.818Z,33.70
